CYIV

Details ICAO CYIV (YIV)
Name Island Lake
Region Canada
Timezone America/Winnipeg (UTC-5.0)
Plans Departing 4
Arriving 2
Stats Elevation 776 ft / 237 m (AMSL)
Location 53.856998° -94.653328°
Runways 1
Magnetic Variation 0.056° E
Sunrise 2018-05-27 10:00:44 UTC / 2018-05-27 05:00:44 Local
Sunset 2018-05-28 02:33:45 UTC / 2018-05-27 21:33:45 Local
Advertisement - Login to hide

Runways

ID Width Length Bearing (true) Bearing (mag) Surface Threshold Offset Overrun Length
12 100 ft / 30 m 4,004 ft / 1,220 m 123.99° 123.93° Gravel 0 ft / 0 m 0 ft / 0 m
30 100 ft / 30 m 4,004 ft / 1,220 m 304.01° 303.95° Gravel 0 ft / 0 m 0 ft / 0 m

Map

Weather


0- 5 10 15 20 25 30 35+ Temperature / ° C

Clouds and Precipitation
Forecast for 2018-05-28 00:00 UTC. Updated 27 minutes ago

Ground ~20,000 ft ~40,000 ft Winds

METAR

CYIV 272300Z 29011KT 15SM FEW032 SCT062 21/08 A2973 RMK CU1CU3 SLP072 DENSITY ALT 2000FT

TAF

TAF AMD TAF AMD CYIV 271958Z 2719/2807 25008KT P6SM BKN050 TEMPO 2720/2724 VRB15G25KT 2SM TSRA BR OVC020CB FM280200 29010KT P6SM FEW050 RMK NXT FCST BY 280100Z
Warning: Do not use this data for real-world aviation or navigation. No guarantee of current accuracy is given.